aviador You're here:

KSMQ Decoded Metar

SOMERVILLE in NJ, USA
Report Time2018-07-20 05:53:00
UTC Time2018-07-20 06:36:21
Flight Rules vfr VFR
Wind310° at 03 kt
W.Decomp.*RWY 35: 2.7 kt HW 1.4 kt LCW
RWY 30: 2.8 kt HW 1.2 kt RCW
RWY 26: 1.4 kt HW 2.7 kt RCW
W.Rank310° ranks 2
Current wind is below 310° avg. (6.9)
Visibility9999 m
Phenomena:N/A
Clouds:N/A
CeilingNone
Temp16°C (ISA +1)
Dew Point16°C (100% RH)
QNH1020 hPa
Density Alt243 ft
Elevation98 ft
Report Wrong Elevation
Raw Report
KSMQ 200553Z AUTO 31003KT 10SM CLR 16/16 A3012 RMK AO2 SLP200
T01560156 10233 20156 50005=

Extra information for KSMQ:More info

Metar Taf Metar & Taf Last 4 Metars F.Rules Stats Wind Profile Meteogram Temp Stats Airport Information Weather charts Add Link Nearby VenuesMetar ALERT Operation Metar Decoded Social comments

AIRNAV info for KSMQ